Time;durP1;ratioP1;P1;durP2;ratioP2;P2;SDS_P1;SDS_P2;PMS_P1;PMS_P2;Temp;Humidity;BMP_temperature;BMP_pressure;BME280_temperature;BME280_humidity;BME280_pressure;Samples;Min_cycle;Max_cycle;Signal;HPM_P1;HPM_P2
2021/08/13 00:01:45;;;;;;;20.33;16.08;;;20.50;99.90;;;;;;5037110;28;20199;-83
2021/08/13 00:04:11;;;;;;;19.98;15.43;;;20.40;99.90;;;;;;5036244;28;20172;-83
2021/08/13 00:06:40;;;;;;;20.50;15.50;;;20.30;99.90;;;;;;5036933;28;20278;-83
2021/08/13 00:09:07;;;;;;;27.00;16.10;;;20.00;99.90;;;;;;5041290;28;20223;-83
2021/08/13 00:11:38;;;;;;;28.88;16.88;;;19.90;99.90;;;;;;5044703;28;20695;-82
2021/08/13 00:14:05;;;;;;;28.80;17.63;;;20.10;99.90;;;;;;5040617;28;20229;-83
2021/08/13 00:16:31;;;;;;;22.35;17.23;;;20.10;99.90;;;;;;5038970;28;20184;-82
2021/08/13 00:18:57;;;;;;;29.15;17.50;;;20.20;99.90;;;;;;5034526;28;20267;-83
2021/08/13 00:21:23;;;;;;;18.55;15.45;;;20.30;99.90;;;;;;5033918;28;20167;-83
2021/08/13 00:23:49;;;;;;;29.17;16.42;;;20.20;99.90;;;;;;5033349;28;20185;-84
2021/08/13 00:26:14;;;;;;;32.08;16.38;;;20.20;99.90;;;;;;5032603;28;20192;-82
2021/08/13 00:28:40;;;;;;;25.98;15.48;;;20.30;99.90;;;;;;5032784;28;20227;-83
2021/08/13 00:31:06;;;;;;;30.25;15.98;;;20.30;99.90;;;;;;5033169;28;20211;-83
2021/08/13 00:33:31;;;;;;;23.02;15.82;;;20.30;99.90;;;;;;5032021;28;20186;-83
2021/08/13 00:35:57;;;;;;;31.50;16.20;;;20.30;99.90;;;;;;5032349;28;20192;-83
2021/08/13 00:40:52;;;;;;;24.60;16.65;;;20.40;99.90;;;;;;5071542;28;20189;-90
2021/08/13 00:43:18;;;;;;;28.25;17.20;;;20.50;99.90;;;;;;5073794;28;20169;-90
2021/08/13 00:45:43;;;;;;;29.77;16.85;;;20.60;99.90;;;;;;5061148;28;20235;-90
2021/08/13 00:48:09;;;;;;;20.38;16.15;;;20.40;99.90;;;;;;5072837;28;20174;-88
2021/08/13 00:50:35;;;;;;;26.90;16.67;;;20.50;99.90;;;;;;5073497;28;20174;-90
2021/08/13 00:53:02;;;;;;;21.75;15.07;;;20.50;99.90;;;;;;5073785;28;20202;-89
2021/08/13 00:55:28;;;;;;;23.65;16.90;;;20.60;99.90;;;;;;5072744;28;20186;-91
2021/08/13 00:57:54;;;;;;;29.55;16.20;;;20.50;99.90;;;;;;5072290;28;20236;-92
2021/08/13 01:00:20;;;;;;;24.10;16.02;;;20.40;99.90;;;;;;5073051;28;20169;-91
2021/08/13 01:02:46;;;;;;;20.65;15.60;;;20.30;99.90;;;;;;5072033;28;20162;-89
2021/08/13 01:05:12;;;;;;;22.67;15.55;;;20.30;99.90;;;;;;5073355;28;20186;-90
2021/08/13 01:07:38;;;;;;;26.45;16.33;;;20.40;99.90;;;;;;5072042;28;20229;-84
2021/08/13 01:10:05;;;;;;;26.67;16.02;;;20.50;99.90;;;;;;5072040;28;20537;-83
2021/08/13 01:12:44;;;;;;;21.17;16.33;;;20.60;99.90;;;;;;5073029;28;20205;-83
2021/08/13 01:15:12;;;;;;;24.30;16.08;;;20.50;99.90;;;;;;5072474;28;20194;-83
2021/08/13 01:18:08;;;;;;;23.35;15.18;;;20.50;99.90;;;;;;5072427;28;20170;-84
2021/08/13 01:20:45;;;;;;;23.90;15.05;;;20.40;99.90;;;;;;5063159;28;20721;-88
2021/08/13 01:23:17;;;;;;;24.92;16.27;;;20.40;99.90;;;;;;5072727;28;20253;-82
2021/08/13 01:25:47;;;;;;;27.17;16.40;;;20.40;99.90;;;;;;5070547;28;20217;-81
2021/08/13 01:28:51;;;;;;;35.38;18.80;;;20.40;99.90;;;;;;5070785;28;20214;-81
2021/08/13 01:31:23;;;;;;;26.52;16.23;;;20.50;99.90;;;;;;5071036;28;20170;-82
2021/08/13 01:33:54;;;;;;;22.35;15.90;;;20.40;99.90;;;;;;5070948;28;20538;-81
2021/08/13 01:36:22;;;;;;;24.27;15.63;;;20.20;99.90;;;;;;5071252;28;20221;-81
2021/08/13 01:38:49;;;;;;;24.50;16.60;;;20.10;99.90;;;;;;5073907;28;20183;-81
2021/08/13 01:41:16;;;;;;;27.30;16.10;;;20.00;99.90;;;;;;5075643;28;20170;-82
2021/08/13 01:43:44;;;;;;;25.63;17.20;;;20.20;99.90;;;;;;5076296;28;20248;-81
2021/08/13 01:46:12;;;;;;;24.73;14.98;;;20.40;99.90;;;;;;5075947;28;20179;-81
2021/08/13 01:48:38;;;;;;;30.50;15.63;;;20.30;99.90;;;;;;5076630;28;20171;-81
2021/08/13 01:51:05;;;;;;;21.58;15.27;;;20.40;99.90;;;;;;5076804;28;20251;-81
2021/08/13 01:53:32;;;;;;;23.35;14.85;;;20.40;99.90;;;;;;5077814;28;20181;-81
2021/08/13 01:55:59;;;;;;;26.95;15.32;;;20.30;99.90;;;;;;5077937;28;20186;-81
2021/08/13 01:58:26;;;;;;;29.45;15.45;;;20.10;99.90;;;;;;5075171;28;20175;-81
2021/08/13 02:00:52;;;;;;;21.65;15.45;;;20.20;99.90;;;;;;5076542;28;20177;-81
2021/08/13 02:03:18;;;;;;;22.23;14.85;;;20.20;99.90;;;;;;5074970;28;20162;-81
2021/08/13 02:05:46;;;;;;;23.95;14.70;;;20.10;99.90;;;;;;5074978;28;20240;-81
2021/08/13 02:08:13;;;;;;;29.15;15.93;;;20.10;99.90;;;;;;5075038;28;20576;-81
2021/08/13 02:10:42;;;;;;;24.50;15.80;;;20.30;99.90;;;;;;5075917;28;20170;-82
2021/08/13 02:13:09;;;;;;;26.88;15.23;;;20.10;99.90;;;;;;5074887;28;20202;-81
2021/08/13 02:15:37;;;;;;;20.13;15.20;;;19.90;99.90;;;;;;5075439;28;20269;-81
2021/08/13 02:18:11;;;;;;;24.17;15.40;;;19.90;99.90;;;;;;5073824;28;20227;-82
2021/08/13 02:20:42;;;;;;;23.83;15.93;;;19.80;99.90;;;;;;5074054;28;20256;-81
2021/08/13 02:23:09;;;;;;;22.67;15.48;;;19.80;99.90;;;;;;5073943;28;20193;-81
2021/08/13 02:25:35;;;;;;;24.67;15.00;;;19.80;99.90;;;;;;5073953;28;20209;-85
2021/08/13 02:28:00;;;;;;;27.00;14.88;;;19.80;99.90;;;;;;5074491;28;20614;-90
2021/08/13 02:30:26;;;;;;;24.33;15.15;;;19.60;99.90;;;;;;5075719;28;20307;-83
2021/08/13 02:32:52;;;;;;;22.17;15.95;;;19.50;99.90;;;;;;5074210;28;20217;-83
2021/08/13 02:35:17;;;;;;;28.05;15.85;;;19.60;99.90;;;;;;5074276;28;20207;-82
2021/08/13 02:37:57;;;;;;;21.25;15.52;;;19.70;99.90;;;;;;5074115;28;20175;-81
2021/08/13 02:40:29;;;;;;;33.28;16.40;;;19.60;99.90;;;;;;5073524;28;20175;-84
2021/08/13 02:43:03;;;;;;;24.92;16.05;;;19.50;99.90;;;;;;5073925;28;20257;-84
2021/08/13 02:45:32;;;;;;;28.70;15.65;;;19.60;99.90;;;;;;5075572;28;20268;-86
2021/08/13 02:47:59;;;;;;;22.10;15.18;;;19.60;99.90;;;;;;5074056;28;20514;-87
2021/08/13 02:50:27;;;;;;;25.88;15.05;;;19.70;99.90;;;;;;5073427;28;20173;-85
2021/08/13 02:52:58;;;;;;;23.52;15.90;;;19.70;99.90;;;;;;5074035;28;20244;-83
2021/08/13 02:55:33;;;;;;;24.20;15.52;;;19.70;99.90;;;;;;5074257;28;20194;-84
2021/08/13 02:58:03;;;;;;;24.33;16.10;;;19.80;99.90;;;;;;5074264;28;20618;-89
2021/08/13 03:00:30;;;;;;;24.60;14.93;;;19.80;99.90;;;;;;5074473;28;20198;-86
2021/08/13 03:02:58;;;;;;;23.50;15.27;;;19.40;99.90;;;;;;5075290;28;20163;-87
2021/08/13 03:05:24;;;;;;;22.58;15.10;;;19.40;99.90;;;;;;5075126;28;20557;-86
2021/08/13 03:07:52;;;;;;;22.45;15.38;;;19.40;99.90;;;;;;5075145;28;20162;-84
2021/08/13 03:10:18;;;;;;;22.35;16.02;;;19.60;99.90;;;;;;5074059;28;20186;-86
2021/08/13 03:12:45;;;;;;;27.27;16.77;;;19.50;99.90;;;;;;5073706;28;20206;-86
2021/08/13 03:15:11;;;;;;;24.10;16.17;;;19.50;99.90;;;;;;5075088;28;20233;-87
2021/08/13 03:17:38;;;;;;;21.20;16.55;;;19.10;99.90;;;;;;5073954;28;20194;-83
2021/08/13 03:20:06;;;;;;;28.90;16.50;;;19.10;99.90;;;;;;5074656;28;20213;-90
2021/08/13 03:22:34;;;;;;;30.45;15.95;;;19.00;99.90;;;;;;5074047;28;20175;-90
2021/08/13 03:25:00;;;;;;;26.50;15.75;;;19.00;99.90;;;;;;5074667;28;20170;-91
2021/08/13 03:27:26;;;;;;;23.20;14.40;;;19.10;99.90;;;;;;5074766;28;20167;-84
2021/08/13 03:29:52;;;;;;;17.60;13.35;;;19.20;99.90;;;;;;5072562;28;20505;-82
2021/08/13 03:32:19;;;;;;;22.40;14.05;;;19.30;99.90;;;;;;5075036;28;20205;-91
2021/08/13 03:34:45;;;;;;;21.95;13.10;;;19.40;99.90;;;;;;5074270;28;20596;-90
2021/08/13 03:37:10;;;;;;;17.35;11.85;;;19.50;99.90;;;;;;5074918;28;20167;-92
2021/08/13 03:39:36;;;;;;;17.33;11.43;;;19.40;99.90;;;;;;5073535;28;20190;-88
2021/08/13 03:42:02;;;;;;;14.50;11.30;;;19.40;99.90;;;;;;5074709;28;20261;-91
2021/08/13 03:44:28;;;;;;;17.77;11.50;;;19.50;99.90;;;;;;5073887;28;20161;-90
2021/08/13 03:46:53;;;;;;;15.63;10.90;;;19.60;99.90;;;;;;5074741;28;20191;-90
2021/08/13 03:49:19;;;;;;;18.98;10.77;;;19.60;99.90;;;;;;5074384;28;20159;-88
2021/08/13 03:51:45;;;;;;;18.50;11.52;;;19.40;99.90;;;;;;5073720;28;20591;-91
2021/08/13 03:54:11;;;;;;;24.85;10.70;;;19.30;99.90;;;;;;5075219;28;20622;-91
2021/08/13 03:56:37;;;;;;;14.15;10.10;;;19.20;99.90;;;;;;5073542;28;20190;-89
2021/08/13 03:59:02;;;;;;;15.10;9.90;;;19.30;99.90;;;;;;5075965;28;20170;-91
2021/08/13 04:01:28;;;;;;;14.52;10.25;;;19.40;99.90;;;;;;5074097;28;20201;-88
2021/08/13 04:03:54;;;;;;;15.73;10.05;;;19.30;99.90;;;;;;5074562;28;20158;-91
2021/08/13 04:06:19;;;;;;;16.55;11.95;;;19.30;99.90;;;;;;5080380;28;20192;-88
2021/08/13 04:08:45;;;;;;;19.20;12.38;;;19.40;99.90;;;;;;5075884;28;20181;-91
2021/08/13 04:11:11;;;;;;;13.55;10.82;;;19.40;99.90;;;;;;5075196;28;20249;-91
2021/08/13 04:13:36;;;;;;;23.88;11.15;;;19.30;99.90;;;;;;5074528;28;20166;-91
2021/08/13 04:16:02;;;;;;;21.23;11.80;;;19.20;99.90;;;;;;5073216;28;20198;-91
2021/08/13 04:18:28;;;;;;;15.10;10.70;;;19.00;99.90;;;;;;5074998;28;20170;-90
2021/08/13 04:20:53;;;;;;;14.77;8.38;;;18.90;99.90;;;;;;5073724;28;20171;-89
2021/08/13 04:23:19;;;;;;;17.25;11.45;;;18.90;99.90;;;;;;5074791;28;20173;-91
2021/08/13 04:25:44;;;;;;;20.65;10.77;;;18.80;99.90;;;;;;5075761;28;20658;-91
2021/08/13 04:28:10;;;;;;;18.45;10.32;;;18.80;99.90;;;;;;5073042;28;20201;-84
2021/08/13 04:30:36;;;;;;;14.68;9.63;;;18.80;99.90;;;;;;5072725;28;20626;-81
2021/08/13 04:33:09;;;;;;;18.77;10.48;;;18.80;99.90;;;;;;5071216;28;20206;-81
2021/08/13 04:35:35;;;;;;;9.48;7.68;;;18.90;99.90;;;;;;5071135;28;20186;-81
2021/08/13 04:38:01;;;;;;;9.13;7.68;;;18.90;99.90;;;;;;5071421;28;20232;-80
2021/08/13 04:40:27;;;;;;;8.30;7.47;;;18.90;99.90;;;;;;5071160;28;20186;-81
2021/08/13 04:42:53;;;;;;;9.60;7.63;;;18.80;99.90;;;;;;5071772;28;20162;-82
2021/08/13 04:45:18;;;;;;;15.98;7.85;;;18.70;99.90;;;;;;5072581;28;20186;-83
2021/08/13 04:47:44;;;;;;;8.55;7.32;;;18.90;99.90;;;;;;5070939;28;20206;-82
2021/08/13 04:50:09;;;;;;;18.02;8.77;;;18.90;99.90;;;;;;5072425;28;20257;-81
2021/08/13 04:52:46;;;;;;;10.07;6.47;;;19.00;99.90;;;;;;5071079;28;20542;-81
2021/08/13 04:55:16;;;;;;;10.07;7.63;;;19.00;99.90;;;;;;5072222;28;20205;-85
2021/08/13 04:57:42;;;;;;;10.82;6.68;;;19.00;99.90;;;;;;5072353;28;20166;-81
2021/08/13 05:00:08;;;;;;;8.43;6.63;;;19.00;99.90;;;;;;5071500;28;20618;-83
2021/08/13 05:02:35;;;;;;;7.05;6.00;;;19.00;99.90;;;;;;5071404;28;20173;-83
2021/08/13 05:05:02;;;;;;;7.22;5.57;;;19.10;99.90;;;;;;5071845;28;20227;-83
2021/08/13 05:07:31;;;;;;;6.32;5.72;;;19.10;99.90;;;;;;5071439;28;20175;-81
2021/08/13 05:10:04;;;;;;;9.52;5.85;;;19.10;99.90;;;;;;5072322;28;20170;-82
2021/08/13 05:12:30;;;;;;;9.25;6.53;;;19.20;99.90;;;;;;5070689;28;20202;-83
2021/08/13 05:14:55;;;;;;;5.97;5.38;;;19.20;99.90;;;;;;5073126;28;20216;-83
2021/08/13 05:17:21;;;;;;;16.95;5.30;;;19.30;99.90;;;;;;5076017;28;20177;-83
2021/08/13 05:19:47;;;;;;;4.97;4.45;;;19.50;99.90;;;;;;5075143;28;20171;-81
2021/08/13 05:22:12;;;;;;;5.38;4.88;;;19.30;99.90;;;;;;5075082;28;20622;-83
2021/08/13 05:24:38;;;;;;;5.32;4.80;;;19.20;99.90;;;;;;5074888;28;20634;-83
2021/08/13 05:27:04;;;;;;;7.20;4.60;;;19.30;99.90;;;;;;5075320;28;20247;-83
2021/08/13 05:29:29;;;;;;;5.47;4.97;;;19.00;99.90;;;;;;5076317;28;20504;-82
2021/08/13 05:31:55;;;;;;;7.03;4.82;;;19.10;99.90;;;;;;5076603;28;20224;-82
2021/08/13 05:34:21;;;;;;;10.13;4.82;;;19.10;99.90;;;;;;5075045;28;20235;-82
2021/08/13 05:36:46;;;;;;;5.20;4.13;;;19.20;99.90;;;;;;5076080;28;20193;-80
2021/08/13 05:39:12;;;;;;;4.63;4.22;;;19.20;99.90;;;;;;5077651;28;20177;-83
2021/08/13 05:41:37;;;;;;;4.53;4.13;;;19.00;99.90;;;;;;5077617;28;20163;-81
2021/08/13 05:44:03;;;;;;;4.47;4.03;;;19.20;99.90;;;;;;5077380;28;20178;-81
2021/08/13 05:46:29;;;;;;;4.88;3.88;;;19.10;99.90;;;;;;5077261;28;20696;-81
2021/08/13 05:48:55;;;;;;;4.75;4.25;;;19.10;99.90;;;;;;5077294;28;20170;-81
2021/08/13 05:51:20;;;;;;;4.70;3.55;;;19.20;99.90;;;;;;5076600;28;20555;-82
2021/08/13 05:53:46;;;;;;;8.65;3.85;;;19.20;99.90;;;;;;5075732;28;20523;-81
2021/08/13 05:56:12;;;;;;;4.15;3.75;;;19.30;99.90;;;;;;5075444;28;20650;-81
2021/08/13 05:58:37;;;;;;;7.47;3.17;;;19.40;99.90;;;;;;5077079;28;20671;-80
2021/08/13 06:01:03;;;;;;;4.70;3.75;;;19.50;99.90;;;;;;5077959;28;20170;-80
2021/08/13 06:03:29;;;;;;;5.30;4.03;;;19.40;99.90;;;;;;5076033;28;20622;-80
2021/08/13 06:05:54;;;;;;;6.95;3.00;;;19.40;99.90;;;;;;5079802;28;20277;-84
2021/08/13 06:08:20;;;;;;;4.63;4.13;;;19.40;99.90;;;;;;5084037;28;20715;-81
2021/08/13 06:10:46;;;;;;;5.63;3.65;;;19.50;99.90;;;;;;5083816;28;20175;-86
2021/08/13 06:13:11;;;;;;;4.82;3.67;;;19.40;99.90;;;;;;5068709;28;20682;-82
2021/08/13 06:15:37;;;;;;;3.95;3.30;;;19.40;99.90;;;;;;5085709;28;20183;-85
2021/08/13 06:18:03;;;;;;;8.82;3.67;;;19.60;99.90;;;;;;5089425;28;20178;-83
2021/08/13 06:20:29;;;;;;;5.22;2.95;;;19.50;99.90;;;;;;5087366;28;20155;-82
2021/08/13 06:22:55;;;;;;;6.40;3.97;;;19.50;99.90;;;;;;5063123;28;20185;-88
2021/08/13 06:25:21;;;;;;;3.58;3.28;;;19.50;99.90;;;;;;5076460;28;20186;-86
2021/08/13 06:27:47;;;;;;;4.28;3.55;;;19.60;99.90;;;;;;5077075;28;20188;-87
2021/08/13 06:30:17;;;;;;;7.82;3.35;;;19.60;99.90;;;;;;5075309;28;20552;-92
2021/08/13 06:32:43;;;;;;;4.15;3.38;;;19.50;99.90;;;;;;5077833;28;20194;-87
2021/08/13 06:35:09;;;;;;;4.75;3.53;;;19.60;99.90;;;;;;5084579;28;20209;-87
2021/08/13 06:37:49;;;;;;;5.15;3.70;;;19.70;99.90;;;;;;5077125;28;20672;-88
2021/08/13 06:40:15;;;;;;;7.28;3.70;;;19.70;99.90;;;;;;5060743;22;20246;-81
2021/08/13 06:42:42;;;;;;;6.15;4.18;;;19.80;99.90;;;;;;5035562;28;20636;-82
2021/08/13 06:45:09;;;;;;;5.32;3.70;;;19.90;99.90;;;;;;5036425;28;20858;-83
2021/08/13 06:47:35;;;;;;;4.82;3.40;;;19.90;99.90;;;;;;5042446;28;20168;-84
2021/08/13 06:50:00;;;;;;;7.95;3.55;;;19.80;99.90;;;;;;5058308;28;20231;-84
2021/08/13 06:52:26;;;;;;;5.45;3.70;;;19.70;99.90;;;;;;5056276;28;20187;-84
2021/08/13 06:54:51;;;;;;;4.90;3.80;;;19.70;99.90;;;;;;5052983;28;20249;-84
2021/08/13 06:57:17;;;;;;;3.45;3.15;;;19.80;99.90;;;;;;5035369;28;20234;-82
2021/08/13 06:59:43;;;;;;;3.90;3.60;;;19.90;99.90;;;;;;5035991;28;20179;-83
2021/08/13 07:02:08;;;;;;;7.30;3.60;;;20.00;99.90;;;;;;5036632;28;20250;-84
2021/08/13 07:04:37;;;;;;;5.13;4.53;;;20.10;99.90;;;;;;5037451;28;20275;-84
2021/08/13 07:07:03;;;;;;;3.70;3.38;;;20.10;99.90;;;;;;5035276;28;20193;-83
2021/08/13 07:09:30;;;;;;;4.50;3.80;;;20.10;99.90;;;;;;5036012;28;20172;-83
2021/08/13 07:12:02;;;;;;;4.45;4.05;;;20.00;99.90;;;;;;5034382;28;20204;-83
2021/08/13 07:14:29;;;;;;;4.75;4.35;;;19.90;99.90;;;;;;5018890;28;20180;-83
2021/08/13 07:16:55;;;;;;;6.10;4.53;;;19.90;99.90;;;;;;5017122;28;20204;-85
2021/08/13 07:19:21;;;;;;;6.45;4.28;;;19.90;99.90;;;;;;5018108;28;20172;-85
2021/08/13 07:21:47;;;;;;;11.00;4.45;;;20.00;99.90;;;;;;5026164;28;20264;-85
2021/08/13 07:24:15;;;;;;;5.82;3.72;;;20.20;99.90;;;;;;5021816;28;20180;-84
2021/08/13 07:26:41;;;;;;;6.13;4.45;;;20.20;99.90;;;;;;5031926;28;20224;-83
2021/08/13 07:29:07;;;;;;;4.40;4.00;;;20.50;99.90;;;;;;5017652;28;20262;-83
2021/08/13 07:31:33;;;;;;;10.98;4.82;;;20.80;99.90;;;;;;5014354;28;20184;-80
2021/08/13 07:33:58;;;;;;;6.18;4.72;;;20.90;99.90;;;;;;5013815;28;20524;-81
2021/08/13 07:36:25;;;;;;;4.93;3.80;;;20.90;99.90;;;;;;5017095;28;20197;-82
2021/08/13 07:38:52;;;;;;;6.25;3.42;;;20.80;99.90;;;;;;5031331;28;20175;-84
2021/08/13 07:41:18;;;;;;;12.15;4.70;;;21.00;99.90;;;;;;5035696;28;20690;-82
2021/08/13 07:43:44;;;;;;;5.95;3.90;;;21.00;99.90;;;;;;5036156;28;20241;-82
2021/08/13 07:46:10;;;;;;;6.38;4.05;;;21.20;99.90;;;;;;5031952;28;20659;-83
2021/08/13 07:48:36;;;;;;;4.30;3.47;;;21.50;99.90;;;;;;5034483;28;20168;-83
2021/08/13 07:51:02;;;;;;;4.57;3.60;;;21.50;99.90;;;;;;5037826;28;20262;-82
2021/08/13 07:53:33;;;;;;;3.28;2.75;;;21.80;99.90;;;;;;5036679;28;20202;-82
2021/08/13 07:55:58;;;;;;;5.47;3.42;;;22.20;99.90;;;;;;5026320;28;20196;-86
2021/08/13 07:58:24;;;;;;;3.88;3.28;;;22.30;99.90;;;;;;5022151;28;20149;-88
2021/08/13 08:00:50;;;;;;;3.00;2.80;;;22.40;99.90;;;;;;5017138;28;20160;-88
2021/08/13 08:03:16;;;;;;;4.97;2.90;;;22.60;99.90;;;;;;5021071;28;20176;-87
2021/08/13 08:05:43;;;;;;;3.20;2.65;;;22.70;99.90;;;;;;5018484;28;20271;-87
2021/08/13 08:08:09;;;;;;;2.80;2.47;;;22.80;99.90;;;;;;5017060;28;20192;-87
2021/08/13 08:10:35;;;;;;;3.22;2.60;;;23.00;99.90;;;;;;5018020;28;20152;-86
2021/08/13 08:13:00;;;;;;;4.25;2.70;;;23.00;99.90;;;;;;5016069;28;20223;-86
2021/08/13 08:15:26;;;;;;;2.20;2.00;;;22.80;99.90;;;;;;5020792;28;20231;-84
2021/08/13 08:17:52;;;;;;;3.67;2.90;;;22.80;99.90;;;;;;5029676;28;20187;-86
2021/08/13 08:20:18;;;;;;;9.15;2.40;;;22.70;99.90;;;;;;5030054;28;20176;-87
2021/08/13 08:22:43;;;;;;;4.63;2.30;;;23.00;99.90;;;;;;5022192;28;20174;-87
2021/08/13 08:25:09;;;;;;;4.35;1.90;;;23.10;99.90;;;;;;5025020;28;20240;-87
2021/08/13 08:27:36;;;;;;;4.70;2.05;;;22.90;99.90;;;;;;5020794;28;20275;-86
2021/08/13 08:30:02;;;;;;;2.67;1.85;;;23.10;99.90;;;;;;5000548;28;20488;-87
2021/08/13 08:32:29;;;;;;;5.72;2.10;;;22.70;99.90;;;;;;5018236;28;20226;-87
2021/08/13 08:34:55;;;;;;;2.95;2.47;;;22.90;99.90;;;;;;5017848;28;20168;-85
2021/08/13 08:37:21;;;;;;;2.72;2.25;;;23.00;99.90;;;;;;5017754;28;20438;-87
2021/08/13 08:39:47;;;;;;;2.70;2.28;;;23.30;99.90;;;;;;5016397;28;20267;-87
2021/08/13 08:42:20;;;;;;;4.53;2.08;;;23.60;99.90;;;;;;5017791;28;20259;-88
2021/08/13 08:44:46;;;;;;;11.30;2.92;;;23.70;99.90;;;;;;5015539;28;20179;-87
2021/08/13 08:47:12;;;;;;;4.43;2.60;;;23.70;99.90;;;;;;5016720;28;20181;-88
2021/08/13 08:49:39;;;;;;;4.43;2.35;;;23.70;99.90;;;;;;5000669;28;20540;-87
2021/08/13 08:52:08;;;;;;;2.15;1.95;;;23.60;99.90;;;;;;5035517;28;20207;-88
2021/08/13 08:54:37;;;;;;;3.45;1.92;;;23.60;99.90;;;;;;5036281;28;20168;-89
2021/08/13 08:57:05;;;;;;;2.70;1.80;;;23.30;99.90;;;;;;5036175;28;20702;-86
2021/08/13 08:59:31;;;;;;;4.63;1.77;;;23.20;99.90;;;;;;5035888;28;20168;-87
2021/08/13 09:01:58;;;;;;;2.65;1.67;;;23.30;99.90;;;;;;5034859;28;20179;-87
2021/08/13 09:04:24;;;;;;;2.80;1.70;;;23.50;99.90;;;;;;5033720;28;20176;-87
2021/08/13 09:06:49;;;;;;;2.85;1.50;;;23.60;99.90;;;;;;5033395;28;20320;-86
2021/08/13 09:09:16;;;;;;;4.68;1.73;;;23.80;99.90;;;;;;5035574;28;20179;-87
2021/08/13 09:11:42;;;;;;;3.55;1.95;;;24.10;99.90;;;;;;5034051;28;20238;-88
2021/08/13 09:14:11;;;;;;;1.58;1.45;;;24.30;99.90;;;;;;5039098;28;20175;-88
2021/08/13 09:16:37;;;;;;;2.70;1.90;;;24.50;99.90;;;;;;5040552;28;20187;-88
2021/08/13 09:19:08;;;;;;;3.30;1.85;;;24.60;99.90;;;;;;5046170;28;20179;-83
2021/08/13 09:21:35;;;;;;;1.67;1.40;;;24.50;99.90;;;;;;5054953;28;20172;-89
2021/08/13 09:24:11;;;;;;;2.83;2.20;;;24.40;99.90;;;;;;5050112;28;20168;-88
2021/08/13 09:26:42;;;;;;;3.55;1.90;;;24.50;99.90;;;;;;5033293;28;20355;-86
2021/08/13 09:29:09;;;;;;;3.60;1.60;;;24.50;99.90;;;;;;5033951;28;20164;-87
2021/08/13 09:31:36;;;;;;;3.08;1.67;;;24.60;99.90;;;;;;5033406;28;20172;-88
2021/08/13 09:34:08;;;;;;;2.20;1.60;;;24.70;99.90;;;;;;5035352;28;20184;-86
2021/08/13 09:36:41;;;;;;;4.90;1.33;;;24.70;99.90;;;;;;5035269;28;20192;-87
2021/08/13 09:39:09;;;;;;;2.60;2.10;;;24.90;99.90;;;;;;5034344;28;20184;-87
2021/08/13 09:41:45;;;;;;;7.10;2.22;;;25.40;99.90;;;;;;5033125;28;20207;-85
2021/08/13 09:44:11;;;;;;;2.22;1.63;;;25.40;99.90;;;;;;5034480;28;20225;-88
2021/08/13 09:46:38;;;;;;;3.10;1.92;;;25.50;99.90;;;;;;5031542;28;20200;-87
2021/08/13 09:49:17;;;;;;;5.63;1.90;;;25.70;99.90;;;;;;5013162;28;20595;-86
2021/08/13 09:51:43;;;;;;;3.13;2.00;;;25.70;99.90;;;;;;5014166;28;20219;-87
2021/08/13 09:54:11;;;;;;;5.63;2.22;;;26.10;99.90;;;;;;5013449;28;20195;-84
2021/08/13 09:56:39;;;;;;;3.63;1.45;;;26.00;99.90;;;;;;5012651;28;20198;-85
2021/08/13 09:59:17;;;;;;;2.72;2.05;;;25.80;99.90;;;;;;5011075;28;20188;-87
2021/08/13 10:01:46;;;;;;;6.82;1.92;;;25.60;99.90;;;;;;5032326;28;20650;-86
2021/08/13 10:04:15;;;;;;;2.75;1.88;;;25.60;99.90;;;;;;5035344;28;20183;-85
2021/08/13 10:06:43;;;;;;;3.65;2.17;;;25.40;99.90;;;;;;5034590;28;20192;-86
2021/08/13 10:09:24;;;;;;;4.78;2.47;;;25.60;99.90;;;;;;5034991;28;20195;-86
2021/08/13 10:11:59;;;;;;;2.95;2.20;;;25.80;99.90;;;;;;5035366;28;20211;-86
2021/08/13 10:14:42;;;;;;;4.10;2.70;;;25.80;99.90;;;;;;5035596;28;20191;-86
2021/08/13 10:17:16;;;;;;;2.58;2.05;;;26.40;99.90;;;;;;5035856;28;20693;-87
2021/08/13 10:19:44;;;;;;;12.27;2.72;;;26.40;99.90;;;;;;5036704;28;20202;-86
2021/08/13 10:22:12;;;;;;;3.03;2.53;;;26.10;99.90;;;;;;5036858;28;20192;-95
2021/08/13 10:24:38;;;;;;;5.97;3.08;;;26.00;99.90;;;;;;5036596;28;20535;-86
2021/08/13 10:27:05;;;;;;;4.68;2.80;;;26.30;99.90;;;;;;5036287;28;20184;-87
2021/08/13 10:29:31;;;;;;;6.15;2.22;;;26.50;99.90;;;;;;5045484;28;20168;-87
2021/08/13 10:31:58;;;;;;;2.58;1.88;;;26.40;99.90;;;;;;5042364;28;20227;-86
2021/08/13 10:34:23;;;;;;;7.65;2.40;;;26.50;99.90;;;;;;5037761;28;20687;-85
2021/08/13 10:36:49;;;;;;;5.35;2.90;;;26.50;99.90;;;;;;5037929;28;20253;-85
2021/08/13 10:39:21;;;;;;;16.65;3.00;;;26.50;99.90;;;;;;5035386;28;20474;-83
2021/08/13 10:41:50;;;;;;;2.22;1.95;;;26.40;99.90;;;;;;5034198;28;20191;-85
2021/08/13 10:44:18;;;;;;;4.22;2.63;;;26.10;99.90;;;;;;5037282;28;20168;-87
2021/08/13 10:46:46;;;;;;;6.13;2.10;;;26.20;99.90;;;;;;5039418;28;20736;-82
2021/08/13 10:49:19;;;;;;;5.50;2.78;;;26.20;99.90;;;;;;5037489;28;20184;-85
2021/08/13 10:51:44;;;;;;;4.43;2.95;;;26.00;99.90;;;;;;5036870;28;20237;-84
2021/08/13 10:54:19;;;;;;;4.53;2.65;;;25.90;99.90;;;;;;5037695;28;20635;-85
2021/08/13 10:56:48;;;;;;;6.78;2.33;;;26.00;99.90;;;;;;5037473;28;20251;-86
2021/08/13 10:59:40;;;;;;;5.20;1.80;;;26.10;99.90;;;;;;5035554;28;20200;-84
2021/08/13 11:02:11;;;;;;;4.00;2.28;;;26.10;99.90;;;;;;5037430;28;20182;-83
2021/08/13 11:04:48;;;;;;;4.15;2.28;;;26.20;99.90;;;;;;5036806;28;20176;-86
2021/08/13 11:07:53;;;;;;;3.90;2.08;;;26.10;99.90;;;;;;5037695;28;20175;-86
2021/08/13 11:10:42;;;;;;;5.50;2.65;;;26.10;99.90;;;;;;5037515;28;20182;-85
2021/08/13 11:13:11;;;;;;;2.95;2.00;;;26.30;99.90;;;;;;5034977;28;20219;-86
2021/08/13 11:15:37;;;;;;;2.80;1.92;;;26.50;99.90;;;;;;5038260;28;20195;-85
2021/08/13 11:18:35;;;;;;;2.33;2.10;;;26.50;99.90;;;;;;5037130;28;20168;-89
2021/08/13 11:21:03;;;;;;;3.38;2.67;;;26.50;99.90;;;;;;5035220;28;20160;-83
2021/08/13 11:23:29;;;;;;;4.07;2.58;;;26.20;99.90;;;;;;5040890;28;20164;-84
2021/08/13 11:25:56;;;;;;;4.85;2.70;;;26.40;99.90;;;;;;5030062;28;20204;-84
2021/08/13 11:28:23;;;;;;;5.22;2.20;;;26.30;99.90;;;;;;5022372;28;20178;-81
2021/08/13 11:30:50;;;;;;;2.80;1.95;;;26.20;99.90;;;;;;5017325;28;20161;-82
2021/08/13 11:33:25;;;;;;;2.33;1.90;;;26.10;99.90;;;;;;5034892;28;20220;-81
2021/08/13 11:35:52;;;;;;;2.60;1.98;;;26.20;99.90;;;;;;5035811;28;20198;-80
2021/08/13 11:38:43;;;;;;;2.83;2.08;;;26.30;99.90;;;;;;5036827;28;20210;-83
2021/08/13 11:41:20;;;;;;;4.15;2.05;;;26.30;99.90;;;;;;5037580;28;20282;-83
2021/08/13 11:43:52;;;;;;;2.45;1.80;;;26.60;99.90;;;;;;5037363;28;20174;-83
2021/08/13 11:46:32;;;;;;;3.95;1.95;;;26.60;99.90;;;;;;5034699;28;20193;-83
2021/08/13 11:49:00;;;;;;;4.30;2.17;;;26.70;99.90;;;;;;5035573;28;20302;-83
2021/08/13 11:51:27;;;;;;;7.25;2.72;;;26.80;99.90;;;;;;5036340;28;20199;-82
2021/08/13 11:53:54;;;;;;;5.30;2.00;;;26.70;99.90;;;;;;5036049;28;20187;-82
2021/08/13 11:56:28;;;;;;;3.00;1.80;;;26.30;99.90;;;;;;5046357;28;20188;-86
2021/08/13 11:59:00;;;;;;;3.45;1.90;;;26.20;99.90;;;;;;5041825;28;20236;-85
2021/08/13 12:01:27;;;;;;;4.68;2.28;;;26.50;99.90;;;;;;5041492;28;20179;-85
2021/08/13 12:03:53;;;;;;;6.75;2.08;;;26.80;99.90;;;;;;5038034;28;20172;-83
2021/08/13 12:06:19;;;;;;;3.13;1.85;;;27.00;99.90;;;;;;5041703;28;20261;-83
2021/08/13 12:08:46;;;;;;;2.55;2.35;;;26.90;99.90;;;;;;5042199;28;20171;-83
2021/08/13 12:11:12;;;;;;;4.05;2.17;;;26.90;99.90;;;;;;5039557;28;20176;-83
2021/08/13 12:13:39;;;;;;;2.95;1.90;;;27.00;99.90;;;;;;5040270;28;20203;-83
2021/08/13 12:16:05;;;;;;;5.93;2.50;;;27.10;99.90;;;;;;5037742;28;20191;-83
2021/08/13 12:18:32;;;;;;;7.68;2.10;;;27.10;99.90;;;;;;5040172;28;20210;-83
2021/08/13 12:21:05;;;;;;;3.42;1.88;;;26.70;99.90;;;;;;5037947;28;20559;-82
2021/08/13 12:23:31;;;;;;;3.00;2.38;;;26.90;99.90;;;;;;5047391;28;20235;-85
2021/08/13 12:26:01;;;;;;;2.40;1.77;;;27.00;99.90;;;;;;5046474;28;20290;-84
2021/08/13 12:28:33;;;;;;;6.70;1.92;;;26.80;99.90;;;;;;5040550;28;20164;-85
2021/08/13 12:31:04;;;;;;;2.78;2.38;;;26.70;99.90;;;;;;5040658;28;20187;-84
2021/08/13 12:33:29;;;;;;;6.70;3.03;;;26.60;99.90;;;;;;5029455;28;20212;-84
2021/08/13 12:35:55;;;;;;;3.83;2.65;;;26.60;99.90;;;;;;5053040;28;20183;-84
2021/08/13 12:38:37;;;;;;;3.88;2.70;;;26.90;99.90;;;;;;5054054;28;20539;-85
2021/08/13 12:41:03;;;;;;;5.75;2.30;;;27.20;99.90;;;;;;5037981;28;20187;-84
2021/08/13 12:43:29;;;;;;;4.15;2.47;;;27.60;99.90;;;;;;5055034;28;20223;-85
2021/08/13 12:45:56;;;;;;;3.88;2.50;;;27.30;99.90;;;;;;5052283;28;20198;-84
2021/08/13 12:48:24;;;;;;;4.85;2.22;;;27.20;99.90;;;;;;5043541;28;20213;-85